createdAt,value
2018-03-23T00:01:55.688Z,2.70
2018-03-23T00:04:23.783Z,2.60
2018-03-23T00:06:51.891Z,2.60
2018-03-23T00:09:20.009Z,2.60
2018-03-23T00:11:48.186Z,2.50
2018-03-23T00:14:16.247Z,2.50
2018-03-23T00:16:44.384Z,2.50
2018-03-23T00:19:12.544Z,2.50
2018-03-23T00:21:40.600Z,2.50
2018-03-23T00:24:08.700Z,2.50
2018-03-23T00:26:36.799Z,2.60
2018-03-23T00:29:04.983Z,2.50
2018-03-23T00:31:33.119Z,2.50
2018-03-23T00:34:02.090Z,2.40
2018-03-23T00:36:30.205Z,2.40
2018-03-23T00:38:59.143Z,2.50
2018-03-23T00:41:27.267Z,2.40
2018-03-23T00:43:55.403Z,2.50
2018-03-23T00:46:23.539Z,2.50
2018-03-23T00:48:51.740Z,2.50
2018-03-23T00:51:20.684Z,2.50
2018-03-23T00:53:48.776Z,2.50
2018-03-23T00:56:16.965Z,2.50
2018-03-23T00:58:45.256Z,2.50
2018-03-23T01:01:13.477Z,2.60
2018-03-23T01:03:41.585Z,2.60
2018-03-23T01:06:09.691Z,2.60
2018-03-23T01:08:37.891Z,2.60
2018-03-23T01:11:06.013Z,2.50
2018-03-23T01:13:34.778Z,2.50
2018-03-23T01:16:02.901Z,2.50
2018-03-23T01:18:30.993Z,2.50
2018-03-23T01:20:59.077Z,2.50
2018-03-23T01:23:27.192Z,2.50
2018-03-23T01:25:55.352Z,2.50
2018-03-23T01:28:24.263Z,2.50
2018-03-23T01:30:52.359Z,2.50
2018-03-23T01:33:20.481Z,2.60
2018-03-23T01:35:48.632Z,2.50
2018-03-23T01:38:16.827Z,2.50
2018-03-23T01:40:44.936Z,2.50
2018-03-23T01:43:13.092Z,2.50
2018-03-23T01:45:41.219Z,2.50
2018-03-23T01:48:09.383Z,2.50
2018-03-23T01:50:37.581Z,2.50
2018-03-23T01:53:05.715Z,2.50
2018-03-23T01:55:35.520Z,2.60
2018-03-23T01:58:03.679Z,2.60
2018-03-23T02:00:31.791Z,2.50
2018-03-23T02:02:59.892Z,2.40
2018-03-23T02:05:28.754Z,2.40
2018-03-23T02:07:56.867Z,2.40
2018-03-23T02:10:24.981Z,2.30
2018-03-23T02:12:53.068Z,2.40
2018-03-23T02:15:21.458Z,2.40
2018-03-23T02:17:49.641Z,2.40
2018-03-23T02:20:17.780Z,2.40
2018-03-23T02:22:45.895Z,2.40
2018-03-23T02:25:14.039Z,2.40
2018-03-23T02:27:43.085Z,2.40
2018-03-23T02:30:12.095Z,2.40
2018-03-23T02:32:41.039Z,2.40
2018-03-23T02:35:09.912Z,2.40
2018-03-23T02:37:38.879Z,2.40
2018-03-23T02:40:06.978Z,2.40
2018-03-23T02:42:36.064Z,2.40
2018-03-23T02:45:04.207Z,2.40
2018-03-23T02:47:32.354Z,2.40
2018-03-23T02:50:00.499Z,2.40
2018-03-23T02:52:28.647Z,2.40
2018-03-23T02:54:56.848Z,2.40
2018-03-23T02:57:24.961Z,2.40
2018-03-23T02:59:53.104Z,2.40
2018-03-23T03:02:21.215Z,2.40
2018-03-23T03:04:49.397Z,2.40
2018-03-23T03:07:17.588Z,2.40
2018-03-23T03:09:45.695Z,2.30
2018-03-23T03:12:14.790Z,2.30
2018-03-23T03:14:43.607Z,2.30
2018-03-23T03:17:11.740Z,2.40
2018-03-23T03:19:39.951Z,2.40
2018-03-23T03:22:08.054Z,2.40
2018-03-23T03:24:36.158Z,2.40
2018-03-23T03:27:04.289Z,2.30
2018-03-23T03:29:32.377Z,2.30
2018-03-23T03:32:00.519Z,2.30
2018-03-23T03:34:29.438Z,2.30
2018-03-23T03:36:58.360Z,2.30
2018-03-23T03:39:26.514Z,2.30
2018-03-23T03:41:54.651Z,2.30
2018-03-23T03:44:22.751Z,2.40
2018-03-23T03:46:52.023Z,2.40
2018-03-23T03:49:20.207Z,2.40
2018-03-23T03:51:48.421Z,2.30
2018-03-23T03:54:20.251Z,2.30
2018-03-23T03:56:48.367Z,2.30
2018-03-23T03:59:16.520Z,2.20
2018-03-23T04:01:44.649Z,2.20
2018-03-23T04:04:12.876Z,2.20
2018-03-23T04:06:41.017Z,2.10
2018-03-23T04:09:09.182Z,2.10
2018-03-23T04:11:37.289Z,2.10
2018-03-23T04:14:05.432Z,2.10
2018-03-23T04:16:34.339Z,2.10
2018-03-23T04:19:03.228Z,2.20
2018-03-23T04:21:32.402Z,2.20
2018-03-23T04:24:00.745Z,2.10
2018-03-23T04:26:28.848Z,2.20
2018-03-23T04:28:56.944Z,2.20
2018-03-23T04:31:25.053Z,2.20
2018-03-23T04:33:53.470Z,2.20
2018-03-23T04:36:21.623Z,2.20
2018-03-23T04:38:49.780Z,2.10
2018-03-23T04:41:17.944Z,2.10
2018-03-23T04:43:46.053Z,2.10
2018-03-23T04:46:14.356Z,2.10
2018-03-23T04:48:42.427Z,2.00
2018-03-23T04:51:10.588Z,2.10
2018-03-23T04:53:38.727Z,2.10
2018-03-23T04:56:07.731Z,2.10
2018-03-23T04:58:35.898Z,2.10
2018-03-23T05:01:04.023Z,2.20
2018-03-23T05:03:32.180Z,2.20
2018-03-23T05:06:00.315Z,2.20
2018-03-23T05:08:28.510Z,2.20
2018-03-23T05:10:58.139Z,2.10
2018-03-23T05:13:26.277Z,2.20
2018-03-23T05:15:54.479Z,2.10
2018-03-23T05:18:22.619Z,2.10
2018-03-23T05:20:50.859Z,2.10
2018-03-23T05:23:19.624Z,2.10
2018-03-23T05:25:48.628Z,2.10
2018-03-23T05:28:17.776Z,2.10
2018-03-23T05:30:47.613Z,2.10
2018-03-23T05:33:16.629Z,2.20
2018-03-23T05:35:44.784Z,2.20
2018-03-23T05:38:13.688Z,2.20
2018-03-23T05:40:41.993Z,2.20
2018-03-23T05:43:10.038Z,2.20
2018-03-23T05:45:38.132Z,2.30
2018-03-23T05:48:10.786Z,2.30
2018-03-23T05:50:38.926Z,2.20
2018-03-23T05:53:07.090Z,2.20
2018-03-23T05:55:35.771Z,2.20
2018-03-23T05:58:03.895Z,2.20
2018-03-23T06:00:51.922Z,2.30
2018-03-23T06:03:20.051Z,2.30
2018-03-23T06:05:48.179Z,2.40
2018-03-23T06:08:16.360Z,2.60
2018-03-23T06:10:45.394Z,2.70
2018-03-23T06:13:14.314Z,2.80
2018-03-23T06:15:42.502Z,2.80
2018-03-23T06:18:10.681Z,2.90
2018-03-23T06:23:34.600Z,3.10
2018-03-23T06:26:02.737Z,3.10
2018-03-23T06:28:30.904Z,3.10
2018-03-23T06:30:59.349Z,3.20
2018-03-23T06:33:27.455Z,3.30
2018-03-23T06:35:55.552Z,3.30
2018-03-23T06:38:23.746Z,3.30
2018-03-23T06:40:52.720Z,3.30
2018-03-23T06:43:22.035Z,3.60
2018-03-23T06:45:50.334Z,3.50
2018-03-23T06:48:19.529Z,3.70
2018-03-23T06:50:54.849Z,3.80
2018-03-23T06:53:23.086Z,4.00
2018-03-23T06:55:51.812Z,4.10
2018-03-23T06:58:19.906Z,4.20
2018-03-23T07:00:48.462Z,4.20
2018-03-23T07:03:17.456Z,4.20
2018-03-23T07:05:45.667Z,4.30
2018-03-23T07:08:14.016Z,4.50
2018-03-23T07:10:42.210Z,4.60
2018-03-23T07:13:10.427Z,4.60
2018-03-23T07:15:39.309Z,4.70
2018-03-23T07:18:08.278Z,4.80
2018-03-23T07:20:36.948Z,4.80
2018-03-23T07:23:05.338Z,4.80
2018-03-23T07:25:34.517Z,4.90
2018-03-23T07:28:03.591Z,5.00
2018-03-23T07:30:32.211Z,5.00
2018-03-23T07:33:00.747Z,5.00
2018-03-23T07:35:49.141Z,5.20
2018-03-23T07:38:17.872Z,5.20
2018-03-23T07:40:59.434Z,5.20
2018-03-23T07:43:47.015Z,5.30
2018-03-23T07:46:15.092Z,5.30
2018-03-23T07:48:43.482Z,5.30
2018-03-23T07:51:12.296Z,5.30
2018-03-23T07:53:43.729Z,5.40
2018-03-23T07:56:12.763Z,5.50
2018-03-23T07:58:43.151Z,5.70
2018-03-23T08:01:14.268Z,5.90
2018-03-23T08:03:43.711Z,5.90
2018-03-23T08:06:12.279Z,6.00
2018-03-23T08:11:54.430Z,6.30
2018-03-23T08:14:26.242Z,6.40
2018-03-23T08:16:54.563Z,6.30
2018-03-23T08:19:24.242Z,6.20
2018-03-23T08:21:52.499Z,6.20
2018-03-23T08:24:21.512Z,6.30
2018-03-23T08:26:51.462Z,6.50
2018-03-23T08:29:20.456Z,6.80
2018-03-23T08:31:52.109Z,7.00
2018-03-23T08:34:20.380Z,7.00
2018-03-23T08:36:49.456Z,7.10
2018-03-23T08:39:21.986Z,7.10
2018-03-23T08:41:50.675Z,7.10
2018-03-23T08:44:18.979Z,7.20
2018-03-23T08:46:47.227Z,7.20
2018-03-23T08:49:15.422Z,7.10
2018-03-23T08:51:43.645Z,7.20
2018-03-23T08:54:12.799Z,6.90
2018-03-23T08:56:41.204Z,6.90
2018-03-23T08:59:09.300Z,7.10
2018-03-23T09:01:39.521Z,6.90
2018-03-23T09:04:07.772Z,6.90
2018-03-23T09:06:35.982Z,6.90
2018-03-23T09:09:04.179Z,7.10
2018-03-23T09:11:32.533Z,7.30
2018-03-23T09:14:00.775Z,7.50
2018-03-23T09:16:30.372Z,8.00
2018-03-23T09:18:58.732Z,8.00
2018-03-23T09:21:26.967Z,8.10
2018-03-23T09:23:55.258Z,8.20
2018-03-23T09:26:23.389Z,8.30
2018-03-23T09:28:52.366Z,8.30
2018-03-23T09:31:21.876Z,8.30
2018-03-23T09:33:53.191Z,8.20
2018-03-23T09:36:21.364Z,8.20
2018-03-23T09:38:50.824Z,8.50
2018-03-23T09:41:19.002Z,8.60
2018-03-23T09:43:47.107Z,8.60
2018-03-23T09:46:15.480Z,8.70
2018-03-23T09:48:43.672Z,8.90
2018-03-23T09:51:13.227Z,9.00
2018-03-23T09:53:41.387Z,9.10
2018-03-23T09:56:23.008Z,9.20
2018-03-23T09:58:52.969Z,9.00
2018-03-23T10:01:21.138Z,9.00
2018-03-23T10:03:49.422Z,9.00
2018-03-23T10:06:21.362Z,9.10
2018-03-23T10:08:52.743Z,9.30
2018-03-23T10:11:20.892Z,9.40
2018-03-23T10:13:50.152Z,9.80
2018-03-23T10:16:18.340Z,9.70
2018-03-23T10:18:49.649Z,9.90
2018-03-23T10:24:02.144Z,10.00
2018-03-23T10:26:30.290Z,10.20
2018-03-23T10:28:58.564Z,10.20
2018-03-23T10:31:27.102Z,10.30
2018-03-23T10:33:55.409Z,10.50
2018-03-23T10:36:23.960Z,10.60
2018-03-23T10:38:52.456Z,10.70
2018-03-23T10:41:20.709Z,10.70
2018-03-23T10:43:48.807Z,10.70
2018-03-23T10:46:17.507Z,10.60
2018-03-23T10:48:45.691Z,10.50
2018-03-23T10:51:15.983Z,10.60
2018-03-23T10:53:45.100Z,10.70
2018-03-23T10:56:13.880Z,10.80
2018-03-23T10:58:42.021Z,10.80
2018-03-23T11:01:20.850Z,10.90
2018-03-23T11:03:48.919Z,10.90
2018-03-23T11:06:17.094Z,11.00
2018-03-23T11:08:45.376Z,11.10
2018-03-23T11:11:13.698Z,11.30
2018-03-23T11:13:42.572Z,11.40
2018-03-23T11:16:10.689Z,11.40
2018-03-23T11:18:38.907Z,11.50
2018-03-23T11:21:07.099Z,11.60
2018-03-23T11:23:35.437Z,11.70
2018-03-23T11:26:03.786Z,11.70
2018-03-23T11:28:31.999Z,11.60
2018-03-23T11:31:01.192Z,11.60
2018-03-23T11:33:29.343Z,11.40
2018-03-23T11:35:57.564Z,11.30
2018-03-23T11:38:26.567Z,11.30
2018-03-23T11:40:54.998Z,11.30
2018-03-23T11:43:23.103Z,11.30
2018-03-23T11:45:51.336Z,11.20
2018-03-23T11:48:19.748Z,11.30
2018-03-23T11:50:48.048Z,11.50
2018-03-23T11:53:18.220Z,11.70
2018-03-23T11:55:46.379Z,11.80
2018-03-23T11:58:14.598Z,11.80
2018-03-23T12:00:43.060Z,11.70
2018-03-23T12:03:11.309Z,11.80
2018-03-23T12:05:39.524Z,11.80
2018-03-23T12:08:07.676Z,11.70
2018-03-23T12:10:35.880Z,11.60
2018-03-23T12:13:05.487Z,11.30
2018-03-23T12:15:33.933Z,11.30
2018-03-23T12:18:03.392Z,11.10
2018-03-23T12:20:32.215Z,11.10
2018-03-23T12:23:00.436Z,10.90
2018-03-23T12:25:28.700Z,10.80
2018-03-23T12:27:57.072Z,10.90
2018-03-23T12:30:25.206Z,10.90
2018-03-23T12:32:53.526Z,11.00
2018-03-23T12:35:21.640Z,11.00
2018-03-23T12:37:51.603Z,11.20
2018-03-23T12:40:19.849Z,11.30
2018-03-23T12:42:48.059Z,11.40
2018-03-23T12:45:16.152Z,11.40
2018-03-23T12:47:46.203Z,11.60
2018-03-23T12:50:15.477Z,11.70
2018-03-23T12:52:43.570Z,11.80
2018-03-23T12:55:14.008Z,11.90
2018-03-23T12:57:42.229Z,12.00
2018-03-23T13:00:11.325Z,12.10
2018-03-23T13:02:41.240Z,12.20
2018-03-23T13:05:10.144Z,12.20
2018-03-23T13:07:38.243Z,12.20
2018-03-23T13:10:07.107Z,12.20
2018-03-23T13:12:36.142Z,12.20
2018-03-23T13:15:04.268Z,12.10
2018-03-23T13:17:32.396Z,12.10
2018-03-23T13:20:00.463Z,11.90
2018-03-23T13:22:28.567Z,11.70
2018-03-23T13:24:57.411Z,11.40
2018-03-23T13:27:25.707Z,11.40
2018-03-23T13:29:53.839Z,11.40
2018-03-23T13:32:21.997Z,11.40
2018-03-23T13:34:50.892Z,11.10
2018-03-23T13:37:19.009Z,11.10
2018-03-23T13:39:47.345Z,11.00
2018-03-23T13:42:15.436Z,10.90
2018-03-23T13:44:43.592Z,10.90
2018-03-23T13:47:12.094Z,10.80
2018-03-23T13:49:40.280Z,10.60
2018-03-23T13:52:08.440Z,10.40
2018-03-23T13:54:36.547Z,10.50
2018-03-23T13:57:04.657Z,10.50
2018-03-23T13:59:39.100Z,10.50
2018-03-23T14:02:07.171Z,10.50
2018-03-23T14:04:35.303Z,10.60
2018-03-23T14:07:03.619Z,10.50
2018-03-23T14:09:31.754Z,10.50
2018-03-23T14:11:59.903Z,10.40
2018-03-23T14:14:28.007Z,10.40
2018-03-23T14:16:56.154Z,10.30
2018-03-23T14:19:24.298Z,10.30
2018-03-23T14:21:53.271Z,10.30
2018-03-23T14:24:21.557Z,10.30
2018-03-23T14:26:50.523Z,10.20
2018-03-23T14:29:18.779Z,10.20
2018-03-23T14:31:47.597Z,10.10
2018-03-23T14:34:16.322Z,10.00
2018-03-23T14:36:51.997Z,9.90
2018-03-23T14:39:22.029Z,9.80
2018-03-23T14:41:51.945Z,9.80
2018-03-23T14:44:20.250Z,9.80
2018-03-23T14:46:54.260Z,9.70
2018-03-23T14:52:09.353Z,9.80
2018-03-23T14:54:37.476Z,9.80
2018-03-23T14:57:19.778Z,9.90
2018-03-23T14:59:47.888Z,9.90
2018-03-23T15:02:16.111Z,9.90
2018-03-23T15:04:44.338Z,10.00
2018-03-23T15:07:13.494Z,10.00
2018-03-23T15:09:42.459Z,10.00
2018-03-23T15:12:10.894Z,10.00
2018-03-23T15:14:41.497Z,10.00
2018-03-23T15:17:21.566Z,10.10
2018-03-23T15:19:49.915Z,10.10
2018-03-23T15:22:18.056Z,10.10
2018-03-23T15:24:46.169Z,10.10
2018-03-23T15:27:14.412Z,10.10
2018-03-23T15:29:43.142Z,10.20
2018-03-23T15:32:21.740Z,10.20
2018-03-23T15:34:49.905Z,10.10
2018-03-23T15:37:22.732Z,10.20
2018-03-23T15:43:00.541Z,10.10
2018-03-23T15:45:28.742Z,10.10
2018-03-23T15:47:57.688Z,9.90
2018-03-23T15:50:25.852Z,9.80
2018-03-23T15:52:54.014Z,9.80
2018-03-23T15:55:23.174Z,9.80
2018-03-23T15:57:51.338Z,9.70
2018-03-23T16:00:19.459Z,9.60
2018-03-23T16:02:53.705Z,9.60
2018-03-23T16:05:21.796Z,9.50
2018-03-23T16:07:49.934Z,9.40
2018-03-23T16:10:18.472Z,9.40
2018-03-23T16:12:46.633Z,9.40
2018-03-23T16:15:16.520Z,9.40
2018-03-23T16:17:45.193Z,9.30
2018-03-23T16:20:14.109Z,9.30
2018-03-23T16:22:42.438Z,9.20
2018-03-23T16:25:10.578Z,9.10
2018-03-23T16:27:38.702Z,9.00
2018-03-23T16:30:06.798Z,9.00
2018-03-23T16:32:34.910Z,8.90
2018-03-23T16:35:03.099Z,8.90
2018-03-23T16:37:31.935Z,8.80
2018-03-23T16:40:03.035Z,8.80
2018-03-23T16:42:40.547Z,8.80
2018-03-23T16:45:10.448Z,8.70
2018-03-23T16:47:38.713Z,8.70
2018-03-23T16:50:06.969Z,8.60
2018-03-23T16:52:35.857Z,8.50
2018-03-23T16:55:04.779Z,8.40
2018-03-23T16:57:33.370Z,8.40
2018-03-23T17:00:01.505Z,8.40
2018-03-23T17:02:29.567Z,8.30
2018-03-23T17:04:57.749Z,8.30
2018-03-23T17:07:26.774Z,8.30
2018-03-23T17:09:56.983Z,8.30
2018-03-23T17:12:25.072Z,8.20
2018-03-23T17:14:55.140Z,8.20
2018-03-23T17:17:23.237Z,8.20
2018-03-23T17:19:51.357Z,8.20
2018-03-23T17:22:19.500Z,8.20
2018-03-23T17:24:47.637Z,8.20
2018-03-23T17:27:15.752Z,8.20
2018-03-23T17:29:43.943Z,8.20
2018-03-23T17:32:12.600Z,8.20
2018-03-23T17:34:40.686Z,8.20
2018-03-23T17:37:08.844Z,8.20
2018-03-23T17:39:37.034Z,8.20
2018-03-23T17:42:05.185Z,8.10
2018-03-23T17:44:33.319Z,8.10
2018-03-23T17:47:02.337Z,8.10
2018-03-23T17:49:30.504Z,8.00
2018-03-23T17:51:59.095Z,8.00
2018-03-23T17:54:27.257Z,8.00
2018-03-23T17:56:59.283Z,8.00
2018-03-23T17:59:27.372Z,8.00
2018-03-23T18:01:58.739Z,8.00
2018-03-23T18:04:27.436Z,8.00
2018-03-23T18:06:55.606Z,8.00
2018-03-23T18:09:23.721Z,8.00
2018-03-23T18:11:51.966Z,8.00
2018-03-23T18:14:20.035Z,7.90
2018-03-23T18:16:48.183Z,7.90
2018-03-23T18:19:16.507Z,7.90
2018-03-23T18:21:51.360Z,7.90
2018-03-23T18:24:19.573Z,7.90
2018-03-23T18:26:47.760Z,7.90
2018-03-23T18:29:15.935Z,7.90
2018-03-23T18:31:44.050Z,7.90
2018-03-23T18:34:12.149Z,7.90
2018-03-23T18:36:40.231Z,7.80
2018-03-23T18:39:08.334Z,7.80
2018-03-23T18:41:36.409Z,7.80
2018-03-23T18:44:05.267Z,7.80
2018-03-23T18:46:33.403Z,7.70
2018-03-23T18:49:02.262Z,7.70
2018-03-23T18:51:31.355Z,7.70
2018-03-23T18:53:59.475Z,7.70
2018-03-23T18:56:27.555Z,7.60
2018-03-23T18:58:55.644Z,7.60
2018-03-23T19:01:23.784Z,7.60
2018-03-23T19:03:51.898Z,7.50
2018-03-23T19:06:19.996Z,7.50
2018-03-23T19:08:50.088Z,7.50
2018-03-23T19:11:18.897Z,7.40
2018-03-23T19:13:47.544Z,7.40
2018-03-23T19:16:17.040Z,7.40
2018-03-23T19:18:45.137Z,7.40
2018-03-23T19:21:14.191Z,7.30
2018-03-23T19:23:42.443Z,7.30
2018-03-23T19:26:11.418Z,7.20
2018-03-23T19:28:39.564Z,7.20
2018-03-23T19:31:07.681Z,7.20
2018-03-23T19:33:44.400Z,7.20
2018-03-23T19:36:13.537Z,7.20
2018-03-23T19:38:41.716Z,7.20
2018-03-23T19:41:10.868Z,7.10
2018-03-23T19:43:39.224Z,7.10
2018-03-23T19:46:07.424Z,7.10
2018-03-23T19:48:35.492Z,7.10
2018-03-23T19:51:03.671Z,7.00
2018-03-23T19:53:31.739Z,7.10
2018-03-23T19:55:59.827Z,7.00
2018-03-23T19:58:27.967Z,7.00
2018-03-23T20:00:56.048Z,7.00
2018-03-23T20:03:24.624Z,7.00
2018-03-23T20:05:52.705Z,7.00
2018-03-23T20:08:21.049Z,7.00
2018-03-23T20:10:49.112Z,6.90
2018-03-23T20:13:17.321Z,6.90
2018-03-23T20:15:46.239Z,6.90
2018-03-23T20:18:19.963Z,6.90
2018-03-23T20:20:53.627Z,6.80
2018-03-23T20:23:21.941Z,6.80
2018-03-23T20:25:51.024Z,6.70
2018-03-23T20:28:24.945Z,6.70
2018-03-23T20:30:53.055Z,6.70
2018-03-23T20:33:21.203Z,6.70
2018-03-23T20:35:52.360Z,6.60
2018-03-23T20:38:21.075Z,6.60
2018-03-23T20:40:49.189Z,6.60
2018-03-23T20:43:18.023Z,6.50
2018-03-23T20:45:50.517Z,6.50
2018-03-23T20:48:18.652Z,6.50
2018-03-23T20:50:47.519Z,6.50
2018-03-23T20:53:15.611Z,6.50
2018-03-23T20:55:44.148Z,6.50
2018-03-23T20:58:15.881Z,6.50
2018-03-23T21:00:44.071Z,6.50
2018-03-23T21:03:14.173Z,6.50
2018-03-23T21:05:42.308Z,6.40
2018-03-23T21:08:11.160Z,6.40
2018-03-23T21:10:39.646Z,6.40
2018-03-23T21:13:07.816Z,6.40
2018-03-23T21:15:35.983Z,6.40
2018-03-23T21:18:04.222Z,6.40
2018-03-23T21:20:32.319Z,6.40
2018-03-23T21:23:00.408Z,6.30
2018-03-23T21:25:28.531Z,6.30
2018-03-23T21:27:56.630Z,6.30
2018-03-23T21:30:24.827Z,6.30
2018-03-23T21:32:52.903Z,6.30
2018-03-23T21:35:21.039Z,6.20
2018-03-23T21:37:49.159Z,6.30
2018-03-23T21:40:17.275Z,6.30
2018-03-23T21:42:45.364Z,6.30
2018-03-23T21:45:13.475Z,6.30
2018-03-23T21:47:41.585Z,6.30
2018-03-23T21:50:12.948Z,6.30
2018-03-23T21:52:41.261Z,6.30
2018-03-23T21:55:09.373Z,6.30
2018-03-23T21:57:37.806Z,6.30
2018-03-23T22:00:06.659Z,6.30
2018-03-23T22:02:34.742Z,6.40
2018-03-23T22:05:02.823Z,6.40
2018-03-23T22:07:30.970Z,6.40
2018-03-23T22:09:59.165Z,6.40
2018-03-23T22:12:27.311Z,6.40
2018-03-23T22:14:55.423Z,6.40
2018-03-23T22:17:23.510Z,6.40
2018-03-23T22:19:51.621Z,6.40
2018-03-23T22:22:19.724Z,6.40
2018-03-23T22:24:47.835Z,6.40
2018-03-23T22:27:16.762Z,6.40
2018-03-23T22:32:10.853Z,6.40
2018-03-23T22:34:38.932Z,6.30
2018-03-23T22:37:07.017Z,6.30
2018-03-23T22:39:35.171Z,6.30
2018-03-23T22:42:04.009Z,6.30
2018-03-23T22:44:37.455Z,6.30
2018-03-23T22:47:06.287Z,6.30
2018-03-23T22:49:37.905Z,6.30
2018-03-23T22:52:05.991Z,6.30
2018-03-23T22:54:34.087Z,6.30
2018-03-23T22:57:09.010Z,6.30
2018-03-23T22:59:39.015Z,6.30
2018-03-23T23:02:08.023Z,6.20
2018-03-23T23:04:57.928Z,6.20
2018-03-23T23:07:35.394Z,6.20
2018-03-23T23:10:03.470Z,6.20
2018-03-23T23:12:31.607Z,6.20
2018-03-23T23:15:01.133Z,6.10
2018-03-23T23:17:29.197Z,6.10
2018-03-23T23:19:57.349Z,6.10
2018-03-23T23:22:25.480Z,6.10
2018-03-23T23:24:53.576Z,6.10
2018-03-23T23:27:24.428Z,6.10
2018-03-23T23:29:52.513Z,6.10
2018-03-23T23:32:20.601Z,6.10
2018-03-23T23:34:48.742Z,6.00
2018-03-23T23:37:16.831Z,6.00
2018-03-23T23:39:44.928Z,5.90
2018-03-23T23:42:13.772Z,5.90
2018-03-23T23:44:41.958Z,5.90
2018-03-23T23:47:10.054Z,5.90
2018-03-23T23:49:38.160Z,5.90
2018-03-23T23:52:06.600Z,5.80
2018-03-23T23:54:35.410Z,5.80
2018-03-23T23:57:03.479Z,5.80
2018-03-23T23:59:31.558Z,5.80
